createdAt,value
2023-04-02T00:00:20.474Z,8.00
2023-04-02T00:02:57.887Z,8.00
2023-04-02T00:05:51.590Z,8.10
2023-04-02T00:08:41.294Z,8.00
2023-04-02T00:11:12.397Z,8.00
2023-04-02T00:13:46.833Z,7.90
2023-04-02T00:16:22.861Z,8.00
2023-04-02T00:18:55.730Z,7.90
2023-04-02T00:21:28.465Z,7.90
2023-04-02T00:24:02.029Z,7.90
2023-04-02T00:26:34.132Z,7.90
2023-04-02T00:29:05.694Z,7.90
2023-04-02T00:31:36.201Z,8.00
2023-04-02T00:34:06.681Z,8.00
2023-04-02T00:36:36.804Z,8.00
2023-04-02T00:39:16.791Z,8.00
2023-04-02T00:41:48.096Z,8.00
2023-04-02T00:44:22.212Z,8.00
2023-04-02T00:46:52.937Z,8.00
2023-04-02T00:49:33.989Z,8.00
2023-04-02T00:52:06.148Z,8.00
2023-04-02T00:54:49.942Z,7.90
2023-04-02T00:57:23.613Z,7.90
2023-04-02T00:59:59.120Z,7.80
2023-04-02T01:02:32.302Z,7.80
2023-04-02T01:05:04.309Z,7.80
2023-04-02T01:07:52.396Z,7.70
2023-04-02T01:10:43.171Z,7.80
2023-04-02T01:13:22.457Z,7.80
2023-04-02T01:15:57.306Z,7.80
2023-04-02T01:18:47.012Z,7.80
2023-04-02T01:21:28.552Z,7.80
2023-04-02T01:24:05.527Z,7.80
2023-04-02T01:26:57.943Z,7.80
2023-04-02T01:29:32.452Z,7.80
2023-04-02T01:32:04.933Z,7.80
2023-04-02T01:34:34.893Z,7.70
2023-04-02T01:37:18.157Z,7.80
2023-04-02T01:40:01.837Z,7.80
2023-04-02T01:42:38.818Z,7.80
2023-04-02T01:45:12.475Z,7.70
2023-04-02T01:47:42.148Z,7.70
2023-04-02T01:50:25.458Z,7.60
2023-04-02T01:52:58.489Z,7.60
2023-04-02T01:55:34.507Z,7.70
2023-04-02T01:58:04.996Z,7.60
2023-04-02T02:00:37.758Z,7.60
2023-04-02T02:03:09.131Z,7.60
2023-04-02T02:05:39.004Z,7.50
2023-04-02T02:08:17.348Z,7.50
2023-04-02T02:10:46.533Z,7.50
2023-04-02T02:13:17.135Z,7.30
2023-04-02T02:15:48.232Z,7.30
2023-04-02T02:18:20.799Z,7.30
2023-04-02T02:20:49.986Z,7.30
2023-04-02T02:23:19.843Z,7.20
2023-04-02T02:25:49.272Z,7.10
2023-04-02T02:28:20.680Z,7.00
2023-04-02T02:30:54.612Z,7.00
2023-04-02T02:33:26.955Z,6.90
2023-04-02T02:36:04.590Z,6.80
2023-04-02T02:38:47.644Z,6.80
2023-04-02T02:41:28.505Z,6.80
2023-04-02T02:44:03.925Z,6.70
2023-04-02T02:46:35.757Z,6.70
2023-04-02T02:49:10.817Z,6.50
2023-04-02T02:51:45.221Z,6.50
2023-04-02T02:54:20.730Z,6.50
2023-04-02T02:56:55.296Z,6.50
2023-04-02T02:59:25.710Z,6.50
2023-04-02T03:01:56.645Z,6.60
2023-04-02T03:04:26.562Z,6.50
2023-04-02T03:06:59.765Z,6.50
2023-04-02T03:09:40.675Z,6.50
2023-04-02T03:12:25.428Z,6.50
2023-04-02T03:15:02.065Z,6.50
2023-04-02T03:17:39.136Z,6.50
2023-04-02T03:20:16.296Z,6.60
2023-04-02T03:22:53.308Z,6.60
2023-04-02T03:25:30.079Z,6.60
2023-04-02T03:28:05.154Z,6.60
2023-04-02T03:30:40.993Z,6.50
2023-04-02T03:33:16.887Z,6.60
2023-04-02T03:35:49.842Z,6.60
2023-04-02T03:38:24.384Z,6.60
2023-04-02T03:41:02.937Z,6.60
2023-04-02T03:43:38.865Z,6.60
2023-04-02T03:46:18.153Z,6.60
2023-04-02T03:48:52.568Z,6.60
2023-04-02T03:51:27.362Z,6.60
2023-04-02T03:53:57.692Z,6.50
2023-04-02T03:56:31.820Z,6.50
2023-04-02T03:59:12.602Z,6.40
2023-04-02T04:01:47.879Z,6.40
2023-04-02T04:04:21.609Z,6.50
2023-04-02T04:06:53.787Z,6.60
2023-04-02T04:09:28.451Z,6.60
2023-04-02T04:12:08.670Z,6.70
2023-04-02T04:14:45.177Z,6.70
2023-04-02T04:17:24.993Z,6.70
2023-04-02T04:20:08.231Z,6.70
2023-04-02T04:22:38.062Z,6.70
2023-04-02T04:25:23.711Z,6.60
2023-04-02T04:28:06.033Z,6.50
2023-04-02T04:30:47.820Z,6.60
2023-04-02T04:33:23.373Z,6.70
2023-04-02T04:36:00.777Z,6.70
2023-04-02T04:38:39.565Z,6.70
2023-04-02T04:41:16.690Z,6.70
2023-04-02T04:43:52.800Z,6.60
2023-04-02T04:46:29.037Z,6.60
2023-04-02T04:49:03.914Z,6.60
2023-04-02T04:51:40.707Z,6.60
2023-04-02T04:54:13.953Z,6.60
2023-04-02T04:56:49.147Z,6.50
2023-04-02T04:59:25.728Z,6.50
2023-04-02T05:02:02.240Z,6.40
2023-04-02T05:04:37.036Z,6.40
2023-04-02T05:07:13.813Z,6.40
2023-04-02T05:09:54.262Z,6.40
2023-04-02T05:12:34.957Z,6.40
2023-04-02T05:15:14.507Z,6.30
2023-04-02T05:17:51.955Z,6.20
2023-04-02T05:20:27.947Z,6.20
2023-04-02T05:23:07.266Z,6.10
2023-04-02T05:25:37.842Z,6.00
2023-04-02T05:28:16.328Z,6.00
2023-04-02T05:30:53.006Z,5.90
2023-04-02T05:33:27.328Z,5.90
2023-04-02T05:36:02.539Z,6.00
2023-04-02T05:38:38.788Z,6.00
2023-04-02T05:41:16.994Z,5.90
2023-04-02T05:43:49.533Z,6.00
2023-04-02T05:46:22.731Z,6.00
2023-04-02T05:48:57.253Z,6.00
2023-04-02T05:51:37.510Z,5.90
2023-04-02T05:54:16.678Z,5.80
2023-04-02T05:56:51.284Z,5.80
2023-04-02T05:59:24.202Z,5.80
2023-04-02T06:02:00.344Z,5.80
2023-04-02T06:04:42.584Z,5.90
2023-04-02T06:07:18.018Z,5.80
2023-04-02T06:09:58.014Z,5.80
2023-04-02T06:12:33.554Z,5.70
2023-04-02T06:15:03.466Z,5.70
2023-04-02T06:17:44.819Z,5.60
2023-04-02T06:20:18.068Z,5.70
2023-04-02T06:22:53.011Z,5.50
2023-04-02T06:25:28.621Z,5.50
2023-04-02T06:28:02.647Z,5.50
2023-04-02T06:30:35.346Z,5.50
2023-04-02T06:33:06.625Z,5.50
2023-04-02T06:35:41.232Z,5.50
2023-04-02T06:38:21.234Z,5.40
2023-04-02T06:40:57.556Z,5.40
2023-04-02T06:43:41.423Z,5.30
2023-04-02T06:46:30.053Z,5.30
2023-04-02T06:49:12.033Z,5.40
2023-04-02T06:51:43.915Z,5.30
2023-04-02T06:54:16.703Z,5.20
2023-04-02T06:56:52.430Z,5.10
2023-04-02T06:59:48.015Z,5.10
2023-04-02T07:02:32.697Z,5.10
2023-04-02T07:05:06.460Z,5.00
2023-04-02T07:07:38.336Z,5.00
2023-04-02T07:10:11.409Z,4.90
2023-04-02T07:12:42.753Z,5.00
2023-04-02T07:15:17.150Z,5.10
2023-04-02T07:17:47.369Z,5.10
2023-04-02T07:20:28.323Z,5.10
2023-04-02T07:22:59.786Z,5.20
2023-04-02T07:25:29.557Z,5.10
2023-04-02T07:28:03.423Z,5.10
2023-04-02T07:30:33.251Z,5.10
2023-04-02T07:33:03.338Z,5.00
2023-04-02T07:35:32.724Z,5.10
2023-04-02T07:38:02.511Z,5.10
2023-04-02T07:40:32.200Z,5.20
2023-04-02T07:43:02.997Z,5.10
2023-04-02T07:45:33.078Z,5.10
2023-04-02T07:48:07.209Z,5.10
2023-04-02T07:50:36.985Z,5.20
2023-04-02T07:53:07.289Z,5.30
2023-04-02T07:55:37.065Z,5.30
2023-04-02T07:58:08.252Z,5.40
2023-04-02T08:00:38.912Z,5.40
2023-04-02T08:03:08.398Z,5.40
2023-04-02T08:05:38.288Z,5.50
2023-04-02T08:08:07.940Z,5.40
2023-04-02T08:10:37.505Z,5.50
2023-04-02T08:13:08.428Z,5.50
2023-04-02T08:15:38.080Z,5.60
2023-04-02T08:18:07.595Z,5.80
2023-04-02T08:20:36.900Z,5.80
2023-04-02T08:23:07.209Z,5.50
2023-04-02T08:25:36.765Z,5.40
2023-04-02T08:28:07.953Z,5.30
2023-04-02T08:30:37.781Z,5.30
2023-04-02T08:33:07.564Z,5.30
2023-04-02T08:35:37.204Z,5.30
2023-04-02T08:38:06.654Z,5.30
2023-04-02T08:40:39.125Z,5.40
2023-04-02T08:43:34.116Z,5.30
2023-04-02T08:46:11.155Z,5.30
2023-04-02T08:48:44.596Z,5.40
2023-04-02T08:51:24.918Z,5.50
2023-04-02T08:53:57.154Z,5.50
2023-04-02T08:56:32.302Z,5.60
2023-04-02T08:59:09.399Z,5.50
2023-04-02T09:01:47.552Z,5.60
2023-04-02T09:04:20.229Z,5.60
2023-04-02T09:06:52.637Z,5.70
2023-04-02T09:09:23.404Z,5.70
2023-04-02T09:11:55.873Z,5.80
2023-04-02T09:14:37.824Z,5.80
2023-04-02T09:17:18.712Z,5.80
2023-04-02T09:19:55.078Z,5.80
2023-04-02T09:22:27.044Z,5.60
2023-04-02T09:24:57.638Z,5.60
2023-04-02T09:27:29.322Z,5.50
2023-04-02T09:30:04.841Z,5.50
2023-04-02T09:32:52.480Z,5.60
2023-04-02T09:35:26.461Z,5.50
2023-04-02T09:38:20.216Z,5.50
2023-04-02T09:40:53.471Z,5.50
2023-04-02T09:43:24.724Z,5.50
2023-04-02T09:46:03.907Z,5.60
2023-04-02T09:48:39.695Z,5.60
2023-04-02T09:51:21.746Z,5.80
2023-04-02T09:53:53.142Z,5.80
2023-04-02T09:56:26.077Z,5.80
2023-04-02T09:59:06.266Z,5.90
2023-04-02T10:01:39.030Z,5.90
2023-04-02T10:04:33.614Z,5.90
2023-04-02T10:07:03.384Z,5.90
2023-04-02T10:09:35.709Z,5.80
2023-04-02T10:12:07.474Z,5.90
2023-04-02T10:14:40.584Z,5.90
2023-04-02T10:17:17.090Z,5.90
2023-04-02T10:19:51.375Z,5.80
2023-04-02T10:22:23.179Z,5.70
2023-04-02T10:24:52.920Z,5.70
2023-04-02T10:27:31.844Z,5.80
2023-04-02T10:30:14.851Z,5.70
2023-04-02T10:32:51.359Z,5.80
2023-04-02T10:35:35.024Z,5.80
2023-04-02T10:38:20.824Z,5.80
2023-04-02T10:40:56.462Z,5.80
2023-04-02T10:43:47.514Z,5.70
2023-04-02T10:46:24.987Z,5.70
2023-04-02T10:49:05.734Z,5.70
2023-04-02T10:51:43.288Z,5.70
2023-04-02T10:54:30.946Z,5.60
2023-04-02T10:57:09.686Z,5.70
2023-04-02T10:59:43.281Z,5.60
2023-04-02T11:02:29.826Z,5.60
2023-04-02T11:05:09.021Z,5.50
2023-04-02T11:07:49.366Z,5.40
2023-04-02T11:10:21.816Z,5.40
2023-04-02T11:12:56.357Z,5.40
2023-04-02T11:15:26.250Z,5.50
2023-04-02T11:17:55.820Z,5.40
2023-04-02T11:21:07.058Z,5.30
2023-04-02T11:23:58.233Z,5.20
2023-04-02T11:26:38.869Z,5.30
2023-04-02T11:29:26.282Z,5.20
2023-04-02T11:32:31.092Z,5.10
2023-04-02T11:35:07.421Z,5.10
2023-04-02T11:37:41.395Z,5.20
2023-04-02T11:40:45.182Z,5.30
2023-04-02T11:43:49.624Z,5.30
2023-04-02T11:46:45.719Z,5.20
2023-04-02T11:49:42.436Z,5.20
2023-04-02T11:52:24.547Z,5.30
2023-04-02T11:55:19.330Z,5.40
2023-04-02T11:57:59.592Z,5.40
2023-04-02T12:01:08.107Z,5.30
2023-04-02T12:04:09.702Z,5.30
2023-04-02T12:07:00.243Z,5.40
2023-04-02T12:09:31.864Z,5.50
2023-04-02T12:12:19.022Z,5.40
2023-04-02T12:14:50.307Z,5.40
2023-04-02T12:17:31.527Z,5.40
2023-04-02T12:20:05.937Z,5.40
2023-04-02T12:22:37.247Z,5.40
2023-04-02T12:25:21.934Z,5.40
2023-04-02T12:28:06.680Z,5.40
2023-04-02T12:30:37.549Z,5.40
2023-04-02T12:33:18.031Z,5.40
2023-04-02T12:35:49.095Z,5.30
2023-04-02T12:38:22.532Z,5.20
2023-04-02T12:40:56.328Z,5.30
2023-04-02T12:43:29.476Z,5.30
2023-04-02T12:46:01.075Z,5.30
2023-04-02T12:48:31.403Z,5.40
2023-04-02T12:51:01.984Z,5.40
2023-04-02T12:53:35.533Z,5.50
2023-04-02T12:56:05.925Z,5.50
2023-04-02T12:58:38.979Z,5.50
2023-04-02T13:01:14.741Z,5.60
2023-04-02T13:03:44.526Z,5.60
2023-04-02T13:06:24.789Z,5.70
2023-04-02T13:08:54.822Z,5.70
2023-04-02T13:11:24.894Z,5.70
2023-04-02T13:14:02.825Z,5.60
2023-04-02T13:16:37.431Z,5.70
2023-04-02T13:19:24.527Z,5.50
2023-04-02T13:21:55.019Z,5.60
2023-04-02T13:24:26.202Z,5.50
2023-04-02T13:26:57.459Z,5.50
2023-04-02T13:29:30.086Z,5.60
2023-04-02T13:32:01.312Z,5.60
2023-04-02T13:34:31.526Z,5.70
2023-04-02T13:37:01.519Z,5.60
2023-04-02T13:39:30.987Z,5.70
2023-04-02T13:42:01.984Z,5.60
2023-04-02T13:44:34.406Z,5.60
2023-04-02T13:47:04.370Z,5.60
2023-04-02T13:49:34.723Z,5.50
2023-04-02T13:52:05.728Z,5.40
2023-04-02T13:54:40.994Z,5.30
2023-04-02T13:57:10.384Z,5.10
2023-04-02T13:59:41.837Z,5.00
2023-04-02T14:02:14.378Z,5.00
2023-04-02T14:04:50.150Z,5.10
2023-04-02T14:07:34.350Z,5.10
2023-04-02T14:10:16.689Z,5.00
2023-04-02T14:12:59.413Z,5.00
2023-04-02T14:15:42.376Z,5.00
2023-04-02T14:18:28.916Z,5.00
2023-04-02T14:21:06.866Z,5.10
2023-04-02T14:24:03.424Z,5.10
2023-04-02T14:26:42.105Z,5.10
2023-04-02T14:29:18.506Z,5.20
2023-04-02T14:31:57.517Z,5.10
2023-04-02T14:34:35.489Z,5.00
2023-04-02T14:37:14.981Z,4.90
2023-04-02T14:39:52.119Z,4.90
2023-04-02T14:42:27.864Z,4.90
2023-04-02T14:45:07.010Z,4.90
2023-04-02T14:47:42.827Z,4.80
2023-04-02T14:50:15.400Z,4.80
2023-04-02T14:52:53.853Z,4.80
2023-04-02T14:55:34.018Z,4.90
2023-04-02T14:58:09.877Z,4.90
2023-04-02T15:00:44.546Z,4.80
2023-04-02T15:03:22.797Z,4.80
2023-04-02T15:05:57.028Z,4.80
2023-04-02T15:08:30.503Z,4.70
2023-04-02T15:11:08.616Z,4.60
2023-04-02T15:13:44.102Z,4.50
2023-04-02T15:16:19.560Z,4.50
2023-04-02T15:18:53.709Z,4.50
2023-04-02T15:24:33.194Z,4.20
2023-04-02T15:27:23.888Z,4.20
2023-04-02T15:30:03.191Z,4.20
2023-04-02T15:32:40.332Z,4.20
2023-04-02T15:35:24.245Z,4.20
2023-04-02T15:38:02.029Z,4.20
2023-04-02T15:40:52.817Z,4.30
2023-04-02T15:43:27.642Z,4.10
2023-04-02T15:46:23.170Z,4.10
2023-04-02T15:49:07.220Z,4.00
2023-04-02T15:51:54.432Z,4.00
2023-04-02T15:54:51.855Z,3.90
2023-04-02T15:57:36.899Z,4.00
2023-04-02T16:00:24.020Z,3.90
2023-04-02T16:03:08.212Z,3.90
2023-04-02T16:05:43.683Z,3.90
2023-04-02T16:08:33.081Z,3.90
2023-04-02T16:11:03.909Z,4.00
2023-04-02T16:13:39.299Z,4.00
2023-04-02T16:16:15.758Z,4.00
2023-04-02T16:19:00.832Z,3.90
2023-04-02T16:21:34.214Z,4.00
2023-04-02T16:24:08.461Z,4.00
2023-04-02T16:27:16.076Z,3.90
2023-04-02T16:30:00.632Z,3.90
2023-04-02T16:32:47.262Z,4.00
2023-04-02T16:38:02.416Z,3.90
2023-04-02T16:40:42.694Z,3.90
2023-04-02T16:43:28.115Z,3.90
2023-04-02T16:46:08.837Z,3.90
2023-04-02T16:48:46.907Z,3.80
2023-04-02T16:51:22.690Z,3.80
2023-04-02T16:54:02.445Z,3.80
2023-04-02T16:56:50.856Z,3.70
2023-04-02T16:59:30.962Z,3.80
2023-04-02T17:02:06.360Z,3.80
2023-04-02T17:04:56.982Z,3.70
2023-04-02T17:07:36.411Z,3.60
2023-04-02T17:10:35.161Z,3.60
2023-04-02T17:13:18.500Z,3.60
2023-04-02T17:15:53.351Z,3.70
2023-04-02T17:18:27.214Z,3.70
2023-04-02T17:21:04.591Z,3.70
2023-04-02T17:23:56.040Z,3.70
2023-04-02T17:26:32.084Z,3.70
2023-04-02T17:29:09.103Z,3.70
2023-04-02T17:31:42.775Z,3.80
2023-04-02T17:34:25.559Z,3.80
2023-04-02T17:37:16.209Z,3.90
2023-04-02T17:39:55.201Z,3.90
2023-04-02T17:42:39.492Z,4.10
2023-04-02T17:45:23.308Z,4.10
2023-04-02T17:48:03.368Z,4.20
2023-04-02T17:50:58.099Z,4.20
2023-04-02T17:53:43.693Z,4.20
2023-04-02T17:56:41.552Z,4.20
2023-04-02T17:59:33.286Z,4.30
2023-04-02T18:02:26.257Z,4.30
2023-04-02T18:05:20.423Z,4.30
2023-04-02T18:08:01.324Z,4.30
2023-04-02T18:10:41.914Z,4.30
2023-04-02T18:13:23.038Z,4.30
2023-04-02T18:16:04.099Z,4.30
2023-04-02T18:19:14.085Z,4.30
2023-04-02T18:21:56.319Z,4.30
2023-04-02T18:24:58.920Z,4.30
2023-04-02T18:27:57.767Z,4.30
2023-04-02T18:30:36.294Z,4.30
2023-04-02T18:33:25.137Z,4.30
2023-04-02T18:36:05.897Z,4.30
2023-04-02T18:38:45.197Z,4.30
2023-04-02T18:41:35.440Z,4.40
2023-04-02T18:44:22.398Z,4.40
2023-04-02T18:46:56.806Z,4.40
2023-04-02T18:49:31.244Z,4.40
2023-04-02T18:52:05.248Z,4.40
2023-04-02T18:54:44.685Z,4.40
2023-04-02T18:57:21.088Z,4.40
2023-04-02T18:59:57.632Z,4.40
2023-04-02T19:02:46.413Z,4.40
2023-04-02T19:05:25.141Z,4.40
2023-04-02T19:08:03.280Z,4.40
2023-04-02T19:10:39.948Z,4.50
2023-04-02T19:13:18.013Z,4.40
2023-04-02T19:16:04.919Z,4.50
2023-04-02T19:18:48.428Z,4.60
2023-04-02T19:21:33.794Z,4.50
2023-04-02T19:24:25.572Z,4.60
2023-04-02T19:27:09.335Z,4.60
2023-04-02T19:29:58.191Z,4.60
2023-04-02T19:32:48.177Z,4.60
2023-04-02T19:35:28.945Z,4.60
2023-04-02T19:38:10.392Z,4.80
2023-04-02T19:40:48.586Z,4.80
2023-04-02T19:43:23.244Z,4.80
2023-04-02T19:45:57.527Z,4.80
2023-04-02T19:48:30.350Z,4.90
2023-04-02T19:51:01.306Z,4.90
2023-04-02T19:53:32.504Z,4.90
2023-04-02T19:56:04.599Z,4.90
2023-04-02T19:58:39.415Z,4.90
2023-04-02T20:01:11.397Z,4.90
2023-04-02T20:03:42.722Z,5.00
2023-04-02T20:06:15.455Z,5.00
2023-04-02T20:08:55.190Z,5.00
2023-04-02T20:11:30.394Z,5.00
2023-04-02T20:14:04.576Z,5.00
2023-04-02T20:16:37.678Z,4.90
2023-04-02T20:19:10.534Z,5.00
2023-04-02T20:21:42.338Z,4.90
2023-04-02T20:24:15.563Z,5.00
2023-04-02T20:26:47.375Z,5.00
2023-04-02T20:29:20.110Z,5.00
2023-04-02T20:31:50.240Z,5.00
2023-04-02T20:34:21.269Z,5.00
2023-04-02T20:36:52.575Z,5.10
2023-04-02T20:39:23.703Z,5.10
2023-04-02T20:41:54.558Z,5.10
2023-04-02T20:44:26.335Z,5.10
2023-04-02T20:46:56.737Z,5.10
2023-04-02T20:49:26.793Z,5.00
2023-04-02T20:51:56.131Z,5.00
2023-04-02T20:54:25.982Z,5.10
2023-04-02T20:56:55.539Z,5.10
2023-04-02T20:59:26.153Z,5.10
2023-04-02T21:01:55.445Z,5.10
2023-04-02T21:04:25.040Z,5.10
2023-04-02T21:06:57.230Z,5.10
2023-04-02T21:09:26.474Z,5.00
2023-04-02T21:11:55.919Z,5.00
2023-04-02T21:14:26.477Z,5.00
2023-04-02T21:16:55.909Z,4.90
2023-04-02T21:19:25.060Z,4.90
2023-04-02T21:21:56.737Z,4.90
2023-04-02T21:24:26.326Z,4.90
2023-04-02T21:26:56.036Z,4.90
2023-04-02T21:29:26.700Z,4.90
2023-04-02T21:31:56.121Z,4.90
2023-04-02T21:34:25.493Z,4.90
2023-04-02T21:36:54.765Z,5.00
2023-04-02T21:39:25.527Z,4.90
2023-04-02T21:41:55.334Z,4.90
2023-04-02T21:44:26.693Z,4.70
2023-04-02T21:46:56.057Z,4.80
2023-04-02T21:49:26.498Z,4.70
2023-04-02T21:51:56.041Z,4.70
2023-04-02T21:54:25.285Z,4.60
2023-04-02T21:56:54.568Z,4.70
2023-04-02T21:59:23.767Z,4.60
2023-04-02T22:01:54.532Z,4.60
2023-04-02T22:04:26.088Z,4.60
2023-04-02T22:06:55.711Z,4.50
2023-04-02T22:09:27.229Z,4.50
2023-04-02T22:11:59.470Z,4.50
2023-04-02T22:14:29.815Z,4.50
2023-04-02T22:17:01.632Z,4.50
2023-04-02T22:19:33.183Z,4.50
2023-04-02T22:22:02.734Z,4.40
2023-04-02T22:24:32.409Z,4.40
2023-04-02T22:27:01.808Z,4.40
2023-04-02T22:29:31.176Z,4.30
2023-04-02T22:32:01.965Z,4.30
2023-04-02T22:34:31.693Z,4.20
2023-04-02T22:37:01.081Z,4.30
2023-04-02T22:39:30.470Z,4.30
2023-04-02T22:41:59.895Z,4.30
2023-04-02T22:44:29.334Z,4.10
2023-04-02T22:46:58.691Z,4.10
2023-04-02T22:49:29.310Z,4.10
2023-04-02T22:51:58.683Z,4.10
2023-04-02T22:54:27.940Z,3.90
2023-04-02T22:56:57.257Z,3.90
2023-04-02T22:59:26.945Z,3.80
2023-04-02T23:01:56.450Z,3.80
2023-04-02T23:04:25.881Z,3.80
2023-04-02T23:06:56.526Z,3.70
2023-04-02T23:09:25.787Z,3.70
2023-04-02T23:11:55.080Z,3.70
2023-04-02T23:14:24.295Z,3.70
2023-04-02T23:16:53.565Z,3.60
2023-04-02T23:19:22.980Z,3.60
2023-04-02T23:21:52.277Z,3.60
2023-04-02T23:24:23.026Z,3.60
2023-04-02T23:26:52.279Z,3.60
2023-04-02T23:29:21.484Z,3.50
2023-04-02T23:31:51.175Z,3.50
2023-04-02T23:34:20.640Z,3.40
2023-04-02T23:36:49.966Z,3.40
2023-04-02T23:39:20.440Z,3.40
2023-04-02T23:41:51.740Z,3.30
2023-04-02T23:44:21.075Z,3.30
2023-04-02T23:46:50.427Z,3.30
2023-04-02T23:49:19.954Z,3.20
2023-04-02T23:51:49.557Z,3.20
2023-04-02T23:54:20.320Z,3.10
2023-04-02T23:56:51.041Z,3.10
2023-04-02T23:59:20.273Z,3.10
